Time;durP1;ratioP1;P1;durP2;ratioP2;P2;SDS_P1;SDS_P2;PMS_P1;PMS_P2;Temp;Humidity;BMP_temperature;BMP_pressure;BME280_temperature;BME280_humidity;BME280_pressure;Samples;Min_cycle;Max_cycle;Signal;HPM_P1;HPM_P2
2022/07/30 00:00:31;;;;;;;6.00;4.05;;;22.30;86.40;;;;;;5017038;28;20633;-26
2022/07/30 00:02:58;;;;;;;9.05;4.50;;;22.30;86.70;;;;;;5029160;28;20270;-26
2022/07/30 00:05:25;;;;;;;6.40;4.00;;;22.20;86.70;;;;;;5015803;28;20214;-26
2022/07/30 00:07:53;;;;;;;10.98;4.35;;;22.10;86.70;;;;;;5015166;28;20676;-26
2022/07/30 00:10:21;;;;;;;8.23;4.82;;;22.10;87.10;;;;;;5015725;28;20205;-26
2022/07/30 00:12:53;;;;;;;9.90;5.35;;;22.00;86.90;;;;;;5025976;28;20221;-26
2022/07/30 00:15:21;;;;;;;8.55;5.15;;;22.00;87.20;;;;;;5027960;28;20193;-24
2022/07/30 00:17:48;;;;;;;10.18;5.32;;;22.00;87.30;;;;;;5024919;28;20255;-24
2022/07/30 00:20:16;;;;;;;9.55;4.88;;;21.90;87.40;;;;;;5024221;28;20602;-24
2022/07/30 00:22:44;;;;;;;10.85;5.65;;;21.90;87.40;;;;;;5028491;28;20227;-24
2022/07/30 00:25:12;;;;;;;10.32;6.00;;;21.80;87.50;;;;;;5019257;28;20203;-24
2022/07/30 00:27:43;;;;;;;7.88;5.28;;;21.80;87.50;;;;;;5015785;28;20255;-24
2022/07/30 00:30:11;;;;;;;10.75;5.72;;;21.80;87.50;;;;;;5025548;28;20205;-24
2022/07/30 00:32:38;;;;;;;9.95;5.68;;;21.70;87.70;;;;;;5028769;28;20237;-24
2022/07/30 00:35:06;;;;;;;9.65;6.13;;;21.70;87.90;;;;;;5027560;28;20239;-21
2022/07/30 00:37:33;;;;;;;8.98;6.03;;;21.70;88.00;;;;;;5030235;28;20783;-21
2022/07/30 00:40:01;;;;;;;8.75;5.63;;;21.60;88.00;;;;;;5015298;28;20206;-21
2022/07/30 00:42:43;;;;;;;11.48;6.22;;;21.60;87.90;;;;;;5013661;28;20217;-22
2022/07/30 00:45:12;;;;;;;8.48;6.25;;;21.60;88.80;;;;;;5011248;28;20212;-21
2022/07/30 00:47:40;;;;;;;12.73;6.72;;;21.50;88.30;;;;;;5027829;28;20653;-21
2022/07/30 00:50:09;;;;;;;9.38;6.10;;;21.50;88.40;;;;;;5018221;28;20215;-21
2022/07/30 00:52:40;;;;;;;10.13;6.03;;;21.50;88.60;;;;;;5024514;28;20233;-21
2022/07/30 00:55:09;;;;;;;7.80;5.90;;;21.50;88.70;;;;;;5023997;28;20749;-24
2022/07/30 00:57:36;;;;;;;9.23;6.20;;;21.40;88.60;;;;;;5026792;28;20201;-24
2022/07/30 01:00:08;;;;;;;9.00;6.10;;;21.40;88.80;;;;;;5017285;28;20239;-24
2022/07/30 01:02:36;;;;;;;10.10;6.68;;;21.40;89.10;;;;;;5019610;28;20244;-24
2022/07/30 01:05:04;;;;;;;11.85;6.57;;;21.30;88.80;;;;;;5024426;28;20228;-24
2022/07/30 01:07:31;;;;;;;9.88;6.55;;;21.30;88.80;;;;;;5015114;28;20222;-24
2022/07/30 01:09:58;;;;;;;12.90;6.93;;;21.30;89.20;;;;;;5018233;28;20198;-24
2022/07/30 01:12:26;;;;;;;11.63;7.15;;;21.20;89.10;;;;;;5008024;28;20248;-24
2022/07/30 01:14:58;;;;;;;13.02;7.47;;;21.20;89.20;;;;;;5013454;28;20213;-24
2022/07/30 01:17:25;;;;;;;11.32;7.80;;;21.20;89.40;;;;;;5017069;28;20563;-24
2022/07/30 01:20:04;;;;;;;9.63;7.30;;;21.20;89.40;;;;;;5020851;28;20204;-24
2022/07/30 01:22:50;;;;;;;12.80;7.82;;;21.10;89.70;;;;;;5019992;28;20688;-24
2022/07/30 01:25:28;;;;;;;11.52;8.20;;;21.10;89.90;;;;;;5014132;28;20279;-24
2022/07/30 01:28:06;;;;;;;13.40;8.18;;;21.10;89.90;;;;;;5013921;28;20610;-24
2022/07/30 01:30:38;;;;;;;13.25;8.75;;;21.00;90.00;;;;;;5024481;28;20216;-21
2022/07/30 01:33:09;;;;;;;12.02;8.20;;;21.00;89.70;;;;;;5027213;28;20239;-23
2022/07/30 01:35:43;;;;;;;15.05;8.43;;;21.00;90.00;;;;;;5012477;28;20256;-24
2022/07/30 01:38:15;;;;;;;10.85;8.18;;;20.90;89.90;;;;;;5022647;28;20208;-24
2022/07/30 01:40:44;;;;;;;11.80;7.90;;;20.90;89.90;;;;;;5010417;28;20209;-21
2022/07/30 01:43:14;;;;;;;14.73;8.82;;;20.90;90.00;;;;;;5023748;28;20206;-24
2022/07/30 01:45:46;;;;;;;13.38;7.72;;;20.90;90.10;;;;;;5023079;28;20292;-21
2022/07/30 01:48:20;;;;;;;12.15;7.90;;;20.90;90.20;;;;;;5015757;28;20205;-21
2022/07/30 01:50:59;;;;;;;12.50;8.15;;;20.80;90.10;;;;;;5023821;28;20327;-21
2022/07/30 01:53:30;;;;;;;11.95;7.70;;;20.80;90.20;;;;;;5018394;28;20205;-22
2022/07/30 01:55:59;;;;;;;11.50;7.45;;;20.80;90.20;;;;;;5027691;28;20228;-21
2022/07/30 01:58:32;;;;;;;10.52;7.25;;;20.80;90.20;;;;;;5012705;28;20237;-21
2022/07/30 02:01:00;;;;;;;8.25;6.70;;;20.70;90.20;;;;;;5016294;28;20201;-21
2022/07/30 02:03:30;;;;;;;10.32;7.38;;;20.70;90.20;;;;;;5020156;28;20204;-21
2022/07/30 02:06:14;;;;;;;10.82;7.05;;;20.70;90.30;;;;;;5017901;28;20639;-21
2022/07/30 02:08:50;;;;;;;11.40;6.80;;;20.70;90.60;;;;;;5020570;28;20206;-22
2022/07/30 02:14:13;;;;;;;11.00;7.13;;;20.60;90.40;;;;;;5024034;28;20209;-22
2022/07/30 02:16:45;;;;;;;11.98;7.75;;;20.60;90.60;;;;;;5028782;28;20707;-22
2022/07/30 02:19:18;;;;;;;10.00;7.10;;;20.50;90.50;;;;;;5026284;28;20201;-22
2022/07/30 02:21:51;;;;;;;9.75;6.60;;;20.50;90.50;;;;;;5027629;28;20267;-22
2022/07/30 02:24:29;;;;;;;8.43;6.68;;;20.50;90.70;;;;;;5014942;28;20284;-22
2022/07/30 02:27:06;;;;;;;11.80;7.35;;;20.50;90.60;;;;;;5009018;28;20240;-22
2022/07/30 02:29:37;;;;;;;9.60;6.53;;;20.50;90.60;;;;;;5019326;28;20202;-22
2022/07/30 02:32:09;;;;;;;10.38;6.95;;;20.40;90.50;;;;;;5032296;28;20256;-22
2022/07/30 02:34:39;;;;;;;11.20;6.45;;;20.40;90.70;;;;;;5017849;28;20201;-22
2022/07/30 02:37:11;;;;;;;11.80;7.38;;;20.40;90.60;;;;;;5024116;28;20718;-22
2022/07/30 02:39:40;;;;;;;13.38;7.78;;;20.40;90.70;;;;;;5026025;28;20278;-22
2022/07/30 02:42:10;;;;;;;10.88;7.03;;;20.30;90.60;;;;;;5022417;28;20324;-22
2022/07/30 02:44:41;;;;;;;10.07;6.65;;;20.30;90.70;;;;;;5015919;28;20613;-22
2022/07/30 02:47:10;;;;;;;12.07;7.35;;;20.20;90.70;;;;;;5007858;28;20210;-22
2022/07/30 02:49:41;;;;;;;7.70;6.43;;;20.20;90.70;;;;;;5021215;28;20221;-23
2022/07/30 02:52:12;;;;;;;12.02;7.30;;;20.20;90.70;;;;;;5028229;28;20721;-22
2022/07/30 02:54:41;;;;;;;11.65;7.65;;;20.20;90.70;;;;;;5015259;28;20201;-22
2022/07/30 02:57:10;;;;;;;9.75;6.68;;;20.10;90.70;;;;;;5027114;28;20216;-22
2022/07/30 02:59:40;;;;;;;9.98;7.43;;;20.10;90.80;;;;;;5024075;28;20232;-22
2022/07/30 03:02:13;;;;;;;9.05;7.22;;;20.10;90.80;;;;;;5011933;28;20214;-22
2022/07/30 03:04:42;;;;;;;8.73;7.40;;;20.00;90.90;;;;;;5016350;28;20215;-22
2022/07/30 03:07:10;;;;;;;9.80;7.85;;;20.00;90.80;;;;;;5028001;28;20501;-22
2022/07/30 03:09:41;;;;;;;11.25;7.03;;;20.00;90.80;;;;;;5010801;28;20288;-22
2022/07/30 03:12:22;;;;;;;8.90;7.03;;;20.00;90.90;;;;;;5014307;28;20216;-22
2022/07/30 03:14:52;;;;;;;11.60;8.18;;;20.00;90.90;;;;;;5018886;28;20239;-22
2022/07/30 03:17:22;;;;;;;12.23;8.63;;;19.90;91.00;;;;;;5028717;28;20295;-22
2022/07/30 03:19:51;;;;;;;10.50;8.18;;;19.90;91.00;;;;;;5019627;28;20240;-22
2022/07/30 03:22:20;;;;;;;11.50;7.95;;;19.90;90.90;;;;;;5011506;28;20213;-22
2022/07/30 03:24:49;;;;;;;9.20;8.00;;;19.90;91.00;;;;;;5025286;28;20335;-22
2022/07/30 03:27:17;;;;;;;11.68;7.68;;;19.90;91.00;;;;;;5029692;28;20304;-22
2022/07/30 03:29:47;;;;;;;9.20;7.68;;;19.90;91.10;;;;;;5024775;28;20299;-22
2022/07/30 03:32:15;;;;;;;10.98;8.27;;;19.90;91.20;;;;;;5039281;28;20228;-25
2022/07/30 03:34:47;;;;;;;7.85;7.05;;;19.90;91.20;;;;;;5027864;28;20292;-25
2022/07/30 03:37:20;;;;;;;12.32;8.77;;;19.90;91.10;;;;;;5028087;28;20216;-25
2022/07/30 03:39:47;;;;;;;9.70;7.97;;;19.90;91.20;;;;;;5019130;28;20247;-25
2022/07/30 03:42:15;;;;;;;11.18;8.20;;;19.90;91.30;;;;;;5031251;28;20951;-25
2022/07/30 03:44:45;;;;;;;10.98;7.80;;;19.90;91.20;;;;;;5029997;28;20671;-25
2022/07/30 03:47:16;;;;;;;11.07;7.82;;;19.90;91.20;;;;;;5027843;28;20208;-25
2022/07/30 03:49:48;;;;;;;11.07;8.25;;;19.90;91.20;;;;;;5015780;28;20300;-25
2022/07/30 03:52:17;;;;;;;11.43;7.55;;;19.90;91.30;;;;;;5041885;28;20686;-25
2022/07/30 03:54:46;;;;;;;10.60;8.07;;;19.90;91.30;;;;;;5014185;28;20783;-25
2022/07/30 03:57:16;;;;;;;9.10;7.65;;;19.90;91.30;;;;;;5029466;28;20201;-25
2022/07/30 03:59:47;;;;;;;10.82;8.35;;;19.90;91.40;;;;;;5042758;28;20233;-25
2022/07/30 04:02:14;;;;;;;9.32;7.85;;;19.90;91.50;;;;;;5027359;28;20223;-25
2022/07/30 04:04:44;;;;;;;10.95;7.80;;;19.90;91.50;;;;;;5020225;28;20252;-25
2022/07/30 04:07:16;;;;;;;12.30;8.38;;;19.90;91.60;;;;;;5015429;28;20216;-25
2022/07/30 04:09:46;;;;;;;10.65;8.25;;;19.80;91.50;;;;;;5011448;28;20220;-25
2022/07/30 04:12:13;;;;;;;12.38;8.38;;;19.80;91.70;;;;;;5013605;28;20257;-27
2022/07/30 04:14:44;;;;;;;13.18;8.48;;;19.80;91.70;;;;;;5021632;28;20200;-25
2022/07/30 04:17:23;;;;;;;10.18;7.20;;;19.80;91.80;;;;;;5029007;28;20307;-25
2022/07/30 04:19:55;;;;;;;11.55;7.95;;;19.80;91.90;;;;;;5018816;28;20201;-25
2022/07/30 04:22:33;;;;;;;10.15;8.73;;;19.80;91.70;;;;;;5012683;28;20213;-25
2022/07/30 04:25:01;;;;;;;10.38;8.45;;;19.80;92.00;;;;;;5018262;28;20295;-25
2022/07/30 04:27:30;;;;;;;10.48;8.60;;;19.80;91.70;;;;;;5020807;28;20273;-25
2022/07/30 04:29:58;;;;;;;11.77;8.32;;;19.80;91.80;;;;;;5023944;28;20299;-25
2022/07/30 04:32:26;;;;;;;9.52;7.97;;;19.80;91.80;;;;;;5018001;28;20241;-24
2022/07/30 04:34:58;;;;;;;11.18;8.70;;;19.80;91.80;;;;;;5018168;28;20212;-25
2022/07/30 04:37:27;;;;;;;13.23;8.30;;;19.80;91.80;;;;;;5018729;28;20224;-25
2022/07/30 04:39:56;;;;;;;11.65;8.55;;;19.80;91.80;;;;;;5018381;28;20225;-25
2022/07/30 04:42:26;;;;;;;12.63;8.63;;;19.90;91.90;;;;;;5027047;28;20212;-25
2022/07/30 04:44:54;;;;;;;12.23;9.10;;;19.80;91.90;;;;;;5029174;28;20566;-25
2022/07/30 04:47:24;;;;;;;9.63;7.82;;;19.90;91.90;;;;;;5026634;28;20229;-25
2022/07/30 04:49:54;;;;;;;11.00;8.75;;;19.90;91.90;;;;;;5029500;28;20284;-24
2022/07/30 04:52:25;;;;;;;11.25;8.40;;;19.90;92.10;;;;;;5027516;28;20221;-25
2022/07/30 04:55:01;;;;;;;11.15;8.98;;;19.90;92.10;;;;;;5028999;28;20679;-25
2022/07/30 04:57:30;;;;;;;12.75;8.45;;;19.90;92.20;;;;;;5027073;28;20238;-25
2022/07/30 05:00:00;;;;;;;12.27;8.63;;;20.00;92.10;;;;;;5025132;28;20678;-25
2022/07/30 05:02:29;;;;;;;10.88;8.25;;;20.00;92.20;;;;;;5017093;28;20213;-25
2022/07/30 05:05:00;;;;;;;11.00;8.35;;;20.00;92.10;;;;;;5023636;28;20221;-25
2022/07/30 05:07:30;;;;;;;14.00;8.80;;;20.00;92.30;;;;;;5024186;28;20638;-25
2022/07/30 05:09:58;;;;;;;14.02;9.02;;;20.00;92.30;;;;;;5019672;28;20202;-25
2022/07/30 05:12:39;;;;;;;16.15;8.77;;;20.00;92.30;;;;;;5018721;28;20248;-25
2022/07/30 05:15:10;;;;;;;12.73;8.63;;;20.00;92.50;;;;;;5013260;28;20311;-25
2022/07/30 05:17:40;;;;;;;16.00;8.32;;;20.00;92.50;;;;;;5022341;28;20284;-25
2022/07/30 05:20:08;;;;;;;12.13;8.73;;;20.10;92.50;;;;;;5016498;28;20646;-25
2022/07/30 05:22:35;;;;;;;12.07;7.60;;;20.10;92.50;;;;;;5018801;28;20295;-25
2022/07/30 05:25:11;;;;;;;9.88;7.47;;;20.10;92.50;;;;;;5025840;28;20232;-25
2022/07/30 05:27:44;;;;;;;10.32;7.55;;;20.10;92.60;;;;;;5018336;28;20399;-25
2022/07/30 05:30:14;;;;;;;10.57;7.35;;;20.10;92.60;;;;;;5015060;28;20615;-25
2022/07/30 05:32:42;;;;;;;12.75;7.40;;;20.10;92.60;;;;;;5019213;28;20224;-22
2022/07/30 05:35:17;;;;;;;12.98;6.82;;;20.10;92.60;;;;;;5018390;28;20206;-22
2022/07/30 05:37:50;;;;;;;13.32;7.30;;;20.10;92.60;;;;;;5013465;28;20216;-23
2022/07/30 05:40:17;;;;;;;8.13;6.18;;;20.10;92.70;;;;;;5030658;28;20319;-22
2022/07/30 05:42:44;;;;;;;10.73;6.75;;;20.20;92.70;;;;;;5013265;28;20225;-23
2022/07/30 05:45:14;;;;;;;9.43;6.78;;;20.20;92.70;;;;;;5020029;28;20241;-23
2022/07/30 05:47:41;;;;;;;10.75;7.40;;;20.20;92.70;;;;;;5015527;28;20291;-22
2022/07/30 05:50:11;;;;;;;9.35;6.85;;;20.20;92.80;;;;;;5022155;28;20213;-22
2022/07/30 05:52:41;;;;;;;8.85;6.50;;;20.30;92.80;;;;;;5024011;28;20224;-22
2022/07/30 05:55:08;;;;;;;9.25;7.13;;;20.30;92.90;;;;;;5015115;28;20585;-22
2022/07/30 05:57:41;;;;;;;10.80;6.72;;;20.30;92.80;;;;;;5023174;28;20213;-22
2022/07/30 06:00:09;;;;;;;10.02;7.15;;;20.30;92.90;;;;;;5006957;28;20241;-22
2022/07/30 06:02:39;;;;;;;11.35;7.93;;;20.40;93.00;;;;;;5013085;28;20224;-22
2022/07/30 06:05:09;;;;;;;11.02;7.65;;;20.40;93.00;;;;;;5027147;28;20216;-22
2022/07/30 06:07:39;;;;;;;10.98;6.80;;;20.40;93.10;;;;;;5010923;28;20212;-22
2022/07/30 06:10:13;;;;;;;8.27;6.47;;;20.50;93.00;;;;;;5024803;28;20572;-22
2022/07/30 06:12:41;;;;;;;10.25;7.15;;;20.50;93.10;;;;;;5010736;28;20328;-22
2022/07/30 06:15:10;;;;;;;11.82;7.60;;;20.50;93.10;;;;;;5009929;28;20268;-25
2022/07/30 06:17:42;;;;;;;8.93;6.75;;;20.60;93.20;;;;;;5006966;28;20634;-22
2022/07/30 06:20:14;;;;;;;10.27;6.55;;;20.60;93.20;;;;;;5012765;28;20201;-22
2022/07/30 06:22:42;;;;;;;9.90;6.32;;;20.60;93.10;;;;;;5012090;28;20593;-22
2022/07/30 06:25:12;;;;;;;8.57;6.28;;;20.60;93.10;;;;;;5015872;28;20333;-22
2022/07/30 06:27:46;;;;;;;10.02;6.80;;;20.70;93.20;;;;;;5017846;28;20205;-22
2022/07/30 06:30:14;;;;;;;9.00;7.07;;;20.70;93.20;;;;;;5024821;28;20299;-22
2022/07/30 06:32:44;;;;;;;9.43;6.18;;;20.70;93.30;;;;;;5025236;28;20322;-22
2022/07/30 06:35:19;;;;;;;9.88;7.28;;;20.80;93.40;;;;;;5009326;28;20237;-22
2022/07/30 06:37:46;;;;;;;9.43;7.85;;;20.80;93.40;;;;;;5014007;28;20205;-22
2022/07/30 06:40:36;;;;;;;10.70;7.43;;;20.80;93.40;;;;;;5017352;28;20220;-22
2022/07/30 06:43:03;;;;;;;9.40;7.72;;;20.90;93.50;;;;;;5017408;28;20201;-22
2022/07/30 06:45:30;;;;;;;12.02;8.52;;;20.90;93.50;;;;;;5029601;28;20211;-22
2022/07/30 06:48:00;;;;;;;10.13;8.27;;;20.90;93.50;;;;;;5025023;28;20225;-22
2022/07/30 06:50:29;;;;;;;12.18;8.10;;;20.90;93.70;;;;;;5029432;28;20241;-24
2022/07/30 06:53:01;;;;;;;13.57;8.75;;;21.00;93.80;;;;;;5007469;28;20657;-22
2022/07/30 06:55:30;;;;;;;15.40;9.43;;;20.90;93.60;;;;;;5012024;28;20197;-22
2022/07/30 06:58:02;;;;;;;13.20;8.80;;;21.00;93.70;;;;;;4980287;28;1106735;-22
2022/07/30 07:00:32;;;;;;;10.18;8.77;;;21.00;93.70;;;;;;5021041;28;20205;-24
2022/07/30 07:02:59;;;;;;;13.88;9.20;;;21.00;93.60;;;;;;5028899;28;20254;-29
2022/07/30 07:05:29;;;;;;;14.50;9.23;;;21.10;93.60;;;;;;5023842;28;20296;-25
2022/07/30 07:07:56;;;;;;;13.80;8.52;;;21.10;93.80;;;;;;5019977;28;20213;-25
2022/07/30 07:10:26;;;;;;;12.38;8.55;;;21.10;93.70;;;;;;5008282;28;20209;-25
2022/07/30 07:12:54;;;;;;;9.00;6.68;;;21.20;93.80;;;;;;5008104;28;20225;-24
2022/07/30 07:15:22;;;;;;;9.50;6.40;;;21.20;93.80;;;;;;5011857;28;20688;-25
2022/07/30 07:18:04;;;;;;;10.98;6.50;;;21.20;93.70;;;;;;5018992;28;20204;-25
2022/07/30 07:20:32;;;;;;;8.82;6.75;;;21.20;93.70;;;;;;5008727;28;20300;-25
2022/07/30 07:22:59;;;;;;;9.15;6.75;;;21.20;93.70;;;;;;5017727;28;20223;-25
2022/07/30 07:25:35;;;;;;;9.93;6.63;;;21.20;93.80;;;;;;5008361;28;20216;-24
2022/07/30 07:28:06;;;;;;;9.63;6.47;;;21.30;93.70;;;;;;5008978;28;20688;-25
2022/07/30 07:30:43;;;;;;;8.90;5.95;;;21.30;93.80;;;;;;5017438;28;20220;-25
2022/07/30 07:33:11;;;;;;;10.55;6.18;;;21.30;93.80;;;;;;5008554;28;20216;-25
2022/07/30 07:35:39;;;;;;;10.00;5.60;;;21.30;93.70;;;;;;5006790;28;20220;-25
2022/07/30 07:38:19;;;;;;;8.10;5.63;;;21.40;94.00;;;;;;5009796;28;20878;-22
2022/07/30 07:40:53;;;;;;;7.20;5.47;;;21.40;93.80;;;;;;5020436;28;20715;-22
2022/07/30 07:43:20;;;;;;;6.80;4.82;;;21.40;93.80;;;;;;5019154;28;20205;-24
2022/07/30 07:45:49;;;;;;;5.90;4.80;;;21.50;93.70;;;;;;5006980;28;20193;-25
2022/07/30 07:48:18;;;;;;;8.45;5.50;;;21.50;93.70;;;;;;5014762;28;20299;-24
2022/07/30 07:50:47;;;;;;;8.00;5.30;;;21.50;93.70;;;;;;5006224;28;20767;-24
2022/07/30 07:53:15;;;;;;;8.80;4.88;;;21.50;93.70;;;;;;5010659;28;20291;-24
2022/07/30 07:55:42;;;;;;;7.32;4.82;;;21.50;93.60;;;;;;5014424;28;20194;-24
2022/07/30 07:58:15;;;;;;;4.88;3.50;;;21.60;93.80;;;;;;5010129;28;20570;-22
2022/07/30 08:00:55;;;;;;;5.85;3.92;;;21.60;93.70;;;;;;5018500;28;20197;-23
2022/07/30 08:03:22;;;;;;;5.18;3.75;;;21.60;93.60;;;;;;5029294;28;20527;-23
2022/07/30 08:05:52;;;;;;;5.55;4.18;;;21.60;93.60;;;;;;5028985;28;20675;-22
2022/07/30 08:08:32;;;;;;;8.02;3.53;;;21.60;93.50;;;;;;5020049;28;20206;-22
2022/07/30 08:10:59;;;;;;;5.60;3.85;;;21.60;93.50;;;;;;5010956;28;20240;-22
2022/07/30 08:13:29;;;;;;;7.18;3.83;;;21.60;93.40;;;;;;5019036;28;20324;-22
2022/07/30 08:16:17;;;;;;;6.25;3.60;;;21.60;93.40;;;;;;5030225;28;20203;-22
2022/07/30 08:18:46;;;;;;;4.95;3.00;;;21.60;93.40;;;;;;5009521;28;20214;-22
2022/07/30 08:21:16;;;;;;;4.28;2.60;;;21.70;93.40;;;;;;5011451;28;20212;-22
2022/07/30 08:23:43;;;;;;;5.55;2.38;;;21.70;93.30;;;;;;5029924;28;20223;-22
2022/07/30 08:26:10;;;;;;;7.22;2.40;;;21.70;93.20;;;;;;5025800;28;20200;-22
2022/07/30 08:28:41;;;;;;;3.33;1.92;;;21.70;93.20;;;;;;5019138;28;20316;-22
2022/07/30 08:31:14;;;;;;;4.18;1.98;;;21.70;93.10;;;;;;5011219;28;20213;-22
2022/07/30 08:33:41;;;;;;;3.65;2.05;;;21.70;93.00;;;;;;5010432;28;20905;-22
2022/07/30 08:36:08;;;;;;;4.00;2.05;;;21.70;93.00;;;;;;5012277;28;20681;-22
2022/07/30 08:38:37;;;;;;;5.05;2.30;;;21.70;92.90;;;;;;5023604;28;20207;-22
2022/07/30 08:41:07;;;;;;;3.13;2.10;;;21.70;92.90;;;;;;5028851;28;20205;-23
2022/07/30 08:43:38;;;;;;;3.03;1.95;;;21.70;92.90;;;;;;5025065;28;20201;-22
2022/07/30 08:46:09;;;;;;;3.42;2.20;;;21.70;92.90;;;;;;5027557;28;20212;-22
2022/07/30 08:48:42;;;;;;;2.72;2.40;;;21.80;92.80;;;;;;5019455;28;20197;-22
2022/07/30 08:51:13;;;;;;;3.42;2.30;;;21.80;92.80;;;;;;5030190;28;20223;-22
2022/07/30 08:53:44;;;;;;;4.57;1.95;;;21.80;92.80;;;;;;5024944;28;20219;-22
2022/07/30 08:56:14;;;;;;;3.60;2.15;;;21.80;92.80;;;;;;5022693;28;20279;-22
2022/07/30 08:58:41;;;;;;;2.95;2.15;;;21.80;92.70;;;;;;5018940;28;20265;-27
2022/07/30 09:01:08;;;;;;;3.63;1.85;;;21.90;92.80;;;;;;5012839;28;20244;-23
2022/07/30 09:03:37;;;;;;;3.67;1.70;;;21.90;92.90;;;;;;5009574;28;20264;-22
2022/07/30 09:06:10;;;;;;;5.57;1.80;;;21.90;92.90;;;;;;5012040;28;20213;-22
2022/07/30 09:08:38;;;;;;;2.35;1.80;;;22.00;92.90;;;;;;5010541;28;20213;-22
2022/07/30 09:11:08;;;;;;;4.05;2.00;;;22.10;92.90;;;;;;5011471;28;20308;-22
2022/07/30 09:13:37;;;;;;;3.67;2.05;;;22.20;92.90;;;;;;5020219;28;20252;-22
2022/07/30 09:16:05;;;;;;;4.25;1.60;;;22.20;92.90;;;;;;5017963;28;20645;-22
2022/07/30 09:18:38;;;;;;;4.03;1.58;;;22.30;92.90;;;;;;5028588;28;20308;-22
2022/07/30 09:21:30;;;;;;;6.55;2.17;;;22.30;92.90;;;;;;5025596;28;20209;-22
2022/07/30 09:24:01;;;;;;;3.25;1.63;;;22.30;92.90;;;;;;5023247;28;20556;-22
2022/07/30 09:26:34;;;;;;;2.85;1.98;;;22.40;92.80;;;;;;5018717;28;20296;-22
2022/07/30 09:29:15;;;;;;;2.63;1.73;;;22.40;92.80;;;;;;5014587;28;20822;-22
2022/07/30 09:32:04;;;;;;;3.40;1.70;;;22.50;92.80;;;;;;5010904;28;20254;-22
2022/07/30 09:34:34;;;;;;;2.47;1.73;;;22.50;92.80;;;;;;5018465;28;20735;-22
2022/07/30 09:37:15;;;;;;;2.50;1.63;;;22.50;92.90;;;;;;5015194;28;20692;-22
2022/07/30 09:39:43;;;;;;;2.50;1.50;;;22.60;92.90;;;;;;5012222;28;20205;-22
2022/07/30 09:42:30;;;;;;;1.98;1.77;;;22.60;92.90;;;;;;5011970;28;20288;-22
2022/07/30 09:45:06;;;;;;;2.72;1.98;;;22.70;92.90;;;;;;5024889;28;20279;-22
2022/07/30 09:47:37;;;;;;;3.28;1.60;;;22.80;92.70;;;;;;5017342;28;20295;-22
2022/07/30 09:50:10;;;;;;;2.15;1.50;;;22.90;92.80;;;;;;5010151;28;20300;-23
2022/07/30 09:52:41;;;;;;;1.65;1.10;;;22.90;92.80;;;;;;5015650;28;20209;-22
2022/07/30 09:55:11;;;;;;;1.50;1.20;;;22.90;92.80;;;;;;5024136;28;20228;-22
2022/07/30 09:57:55;;;;;;;2.28;1.50;;;23.00;92.80;;;;;;5017485;28;20212;-22
2022/07/30 10:00:27;;;;;;;2.97;1.55;;;23.10;92.80;;;;;;5016730;28;20204;-22
2022/07/30 10:02:59;;;;;;;3.47;1.40;;;23.10;92.80;;;;;;5019061;28;20647;-22
2022/07/30 10:05:47;;;;;;;2.50;1.30;;;23.20;92.80;;;;;;5011408;28;20209;-22
2022/07/30 10:08:14;;;;;;;3.35;1.40;;;23.20;92.70;;;;;;5015920;28;20209;-22
2022/07/30 10:10:45;;;;;;;2.63;1.27;;;23.30;92.70;;;;;;5025980;28;20209;-22
2022/07/30 10:13:21;;;;;;;1.98;1.35;;;23.30;92.70;;;;;;5020568;28;20194;-22
2022/07/30 10:15:51;;;;;;;2.05;1.40;;;23.30;92.70;;;;;;5009584;28;20201;-22
2022/07/30 10:18:18;;;;;;;3.35;1.38;;;23.40;92.80;;;;;;5023282;28;20209;-22
2022/07/30 10:20:47;;;;;;;1.52;1.20;;;23.50;92.90;;;;;;5022611;28;20213;-22
2022/07/30 10:23:15;;;;;;;2.92;1.23;;;23.50;93.00;;;;;;5008285;28;20241;-22
2022/07/30 10:25:50;;;;;;;1.98;1.40;;;23.60;93.00;;;;;;5024114;28;20215;-22
2022/07/30 10:28:27;;;;;;;2.00;1.40;;;23.70;93.00;;;;;;5014542;28;20291;-22
2022/07/30 10:30:57;;;;;;;2.00;1.50;;;23.80;93.00;;;;;;5014691;28;20752;-25
2022/07/30 10:33:29;;;;;;;2.58;1.45;;;23.90;92.90;;;;;;5020915;28;20211;-25
2022/07/30 10:36:09;;;;;;;2.05;1.20;;;23.90;92.90;;;;;;5011592;28;20213;-25
2022/07/30 10:38:42;;;;;;;2.50;1.40;;;24.00;93.00;;;;;;5023015;28;20229;-25
2022/07/30 10:41:35;;;;;;;3.47;1.50;;;24.20;93.10;;;;;;5016180;28;20204;-25
2022/07/30 10:44:35;;;;;;;2.17;1.30;;;24.30;93.00;;;;;;5009428;28;20223;-25
2022/07/30 10:47:06;;;;;;;1.98;1.10;;;24.40;93.00;;;;;;5009962;28;20728;-22
2022/07/30 10:49:39;;;;;;;2.10;1.30;;;24.50;93.10;;;;;;5010111;28;20262;-24
2022/07/30 10:52:12;;;;;;;2.58;1.30;;;24.60;93.20;;;;;;5010706;28;20211;-25
2022/07/30 10:54:43;;;;;;;1.40;1.30;;;24.70;93.20;;;;;;5024918;28;20227;-24
2022/07/30 10:57:16;;;;;;;2.00;1.40;;;24.70;93.20;;;;;;5018671;28;20209;-24
2022/07/30 11:00:01;;;;;;;2.88;1.30;;;24.90;93.20;;;;;;5023134;28;20329;-25
2022/07/30 11:02:34;;;;;;;3.03;1.25;;;25.00;93.30;;;;;;5010554;28;20672;-24
2022/07/30 11:05:19;;;;;;;1.77;1.33;;;25.00;93.20;;;;;;5026685;28;20213;-24
2022/07/30 11:08:29;;;;;;;4.97;1.15;;;25.10;93.00;;;;;;5019323;28;20225;-25
2022/07/30 11:11:03;;;;;;;1.80;1.20;;;25.20;92.80;;;;;;5026342;28;20238;-24
2022/07/30 11:13:56;;;;;;;1.63;1.15;;;25.10;92.70;;;;;;5012815;28;20696;-24
2022/07/30 11:16:35;;;;;;;1.58;1.30;;;25.20;92.70;;;;;;5017536;28;20189;-24
2022/07/30 11:19:16;;;;;;;1.52;1.27;;;25.30;92.90;;;;;;5007433;28;20288;-24
2022/07/30 11:22:27;;;;;;;2.28;1.17;;;25.30;92.50;;;;;;5010630;28;20213;-24
2022/07/30 11:24:58;;;;;;;4.43;1.50;;;25.30;92.50;;;;;;5007144;28;20292;-24
2022/07/30 11:27:45;;;;;;;2.00;1.25;;;25.40;92.60;;;;;;5014940;28;20229;-24
2022/07/30 11:30:19;;;;;;;3.80;1.05;;;25.40;92.60;;;;;;5026919;28;20654;-22
2022/07/30 11:32:54;;;;;;;1.55;1.30;;;25.50;92.50;;;;;;5008734;28;20283;-22
2022/07/30 11:35:27;;;;;;;2.00;0.90;;;25.50;92.60;;;;;;5012611;28;20233;-22
2022/07/30 11:38:19;;;;;;;3.10;1.38;;;25.60;92.60;;;;;;5041885;28;20797;-22
2022/07/30 11:40:48;;;;;;;2.42;1.30;;;25.60;92.10;;;;;;5009544;28;20213;-22
2022/07/30 11:43:28;;;;;;;2.50;1.27;;;25.70;92.50;;;;;;5021759;28;20305;-22
2022/07/30 11:46:16;;;;;;;1.67;1.40;;;25.80;92.60;;;;;;5026497;28;20197;-22
2022/07/30 11:49:00;;;;;;;1.52;1.20;;;26.00;92.10;;;;;;5017449;28;20240;-22
2022/07/30 11:51:30;;;;;;;3.30;1.30;;;26.00;92.60;;;;;;5026300;28;20260;-24
2022/07/30 11:54:07;;;;;;;4.18;1.25;;;26.10;92.10;;;;;;5031380;28;20231;-22
2022/07/30 11:56:49;;;;;;;2.00;1.25;;;26.10;92.10;;;;;;4996914;28;20290;-22
2022/07/30 11:59:16;;;;;;;2.15;1.20;;;26.20;92.20;;;;;;5010901;28;20291;-22
2022/07/30 12:02:00;;;;;;;2.40;1.25;;;26.20;92.30;;;;;;5011659;28;20205;-22
2022/07/30 12:04:28;;;;;;;2.97;1.10;;;26.30;92.50;;;;;;5011751;28;20304;-23
2022/07/30 12:06:56;;;;;;;4.90;1.40;;;26.40;92.30;;;;;;5016615;28;20228;-23
2022/07/30 12:09:30;;;;;;;2.17;1.00;;;26.50;92.30;;;;;;5028039;28;20197;-22
2022/07/30 12:12:01;;;;;;;2.05;1.17;;;26.50;92.30;;;;;;5030825;28;20208;-22
2022/07/30 12:14:38;;;;;;;1.88;1.20;;;26.60;92.40;;;;;;5028601;28;20218;-22
2022/07/30 12:17:08;;;;;;;3.00;1.10;;;26.60;92.20;;;;;;5015585;28;20304;-22
2022/07/30 12:19:45;;;;;;;3.10;1.20;;;26.70;92.30;;;;;;5028987;28;20228;-22
2022/07/30 12:22:17;;;;;;;3.65;1.40;;;26.80;92.20;;;;;;5025862;28;20295;-22
2022/07/30 12:24:44;;;;;;;2.92;1.08;;;26.80;91.60;;;;;;5034159;28;20617;-23
2022/07/30 12:27:16;;;;;;;4.72;1.20;;;26.80;92.00;;;;;;5024946;28;20224;-22
2022/07/30 12:29:46;;;;;;;4.22;1.25;;;26.80;92.00;;;;;;5030987;28;20197;-22
2022/07/30 12:32:15;;;;;;;1.88;1.27;;;26.90;92.10;;;;;;5029730;28;20280;-22
2022/07/30 12:34:55;;;;;;;2.92;1.38;;;26.90;92.00;;;;;;5021044;28;20241;-23
2022/07/30 12:37:22;;;;;;;2.25;1.17;;;26.90;91.90;;;;;;5014835;28;20670;-31
2022/07/30 12:40:11;;;;;;;2.20;1.40;;;27.00;92.10;;;;;;5026026;28;20692;-22
2022/07/30 12:42:53;;;;;;;2.88;1.33;;;27.00;91.90;;;;;;5010672;28;20577;-22
2022/07/30 12:45:32;;;;;;;9.27;1.27;;;27.10;91.60;;;;;;5016683;28;20205;-23
2022/07/30 12:48:24;;;;;;;1.38;1.00;;;27.20;92.10;;;;;;5020252;28;20205;-23
2022/07/30 12:51:09;;;;;;;3.90;1.10;;;27.20;92.00;;;;;;5019945;28;20274;-22
2022/07/30 12:53:36;;;;;;;2.08;1.05;;;27.30;92.10;;;;;;5021922;28;20626;-24
2022/07/30 12:56:15;;;;;;;3.10;1.38;;;27.40;92.20;;;;;;5014360;28;20263;-24
2022/07/30 12:58:43;;;;;;;1.38;1.10;;;27.40;92.20;;;;;;5015104;28;20697;-24
2022/07/30 13:01:12;;;;;;;2.03;1.25;;;27.50;92.20;;;;;;5011026;28;21008;-24
2022/07/30 13:03:44;;;;;;;2.85;1.30;;;27.60;92.20;;;;;;5016975;28;20699;-24
2022/07/30 13:06:24;;;;;;;2.58;1.20;;;27.60;92.10;;;;;;5016811;28;20230;-25
2022/07/30 13:08:56;;;;;;;1.40;1.00;;;27.70;92.10;;;;;;5017847;28;20766;-25
2022/07/30 13:11:39;;;;;;;3.28;1.13;;;27.70;92.10;;;;;;5026740;28;20208;-25